sensor_id;sensor_type;location;lat;lon;timestamp;P1;durP1;ratioP1;P2;durP2;ratioP2
53835;SDS011;39737;43.334;21.936;2023-08-30T00:00:42;4.78;;;2.80;;
53835;SDS011;39737;43.334;21.936;2023-08-30T00:03:29;5.45;;;2.47;;
53835;SDS011;39737;43.334;21.936;2023-08-30T00:06:15;5.95;;;2.80;;
53835;SDS011;39737;43.334;21.936;2023-08-30T00:09:01;6.63;;;2.83;;
53835;SDS011;39737;43.334;21.936;2023-08-30T00:11:47;4.97;;;2.53;;
53835;SDS011;39737;43.334;21.936;2023-08-30T00:14:34;7.88;;;2.40;;
53835;SDS011;39737;43.334;21.936;2023-08-30T00:17:22;11.75;;;3.03;;
53835;SDS011;39737;43.334;21.936;2023-08-30T00:20:09;7.82;;;2.40;;
53835;SDS011;39737;43.334;21.936;2023-08-30T00:22:55;4.65;;;3.15;;
53835;SDS011;39737;43.334;21.936;2023-08-30T00:25:41;4.25;;;2.53;;
53835;SDS011;39737;43.334;21.936;2023-08-30T00:28:28;6.05;;;2.67;;
53835;SDS011;39737;43.334;21.936;2023-08-30T00:31:14;3.35;;;2.33;;
53835;SDS011;39737;43.334;21.936;2023-08-30T00:34:00;5.68;;;2.75;;
53835;SDS011;39737;43.334;21.936;2023-08-30T00:37:36;10.88;;;2.75;;
53835;SDS011;39737;43.334;21.936;2023-08-30T00:40:23;4.10;;;2.10;;
53835;SDS011;39737;43.334;21.936;2023-08-30T00:43:11;6.13;;;2.92;;
53835;SDS011;39737;43.334;21.936;2023-08-30T00:45:58;7.05;;;2.45;;
53835;SDS011;39737;43.334;21.936;2023-08-30T00:48:44;4.30;;;2.30;;
53835;SDS011;39737;43.334;21.936;2023-08-30T00:51:31;4.22;;;2.10;;
53835;SDS011;39737;43.334;21.936;2023-08-30T00:54:17;5.13;;;2.33;;
53835;SDS011;39737;43.334;21.936;2023-08-30T00:57:04;4.43;;;2.75;;
53835;SDS011;39737;43.334;21.936;2023-08-30T00:59:51;5.85;;;2.28;;
53835;SDS011;39737;43.334;21.936;2023-08-30T01:02:39;3.22;;;2.50;;
53835;SDS011;39737;43.334;21.936;2023-08-30T01:05:26;5.35;;;2.85;;
53835;SDS011;39737;43.334;21.936;2023-08-30T01:08:12;7.95;;;2.35;;
53835;SDS011;39737;43.334;21.936;2023-08-30T01:11:01;5.18;;;2.00;;
53835;SDS011;39737;43.334;21.936;2023-08-30T01:13:58;7.55;;;2.38;;
53835;SDS011;39737;43.334;21.936;2023-08-30T01:16:46;9.25;;;2.17;;
53835;SDS011;39737;43.334;21.936;2023-08-30T01:22:29;3.60;;;2.35;;
53835;SDS011;39737;43.334;21.936;2023-08-30T01:25:31;8.85;;;2.53;;
53835;SDS011;39737;43.334;21.936;2023-08-30T01:28:22;4.60;;;2.58;;
53835;SDS011;39737;43.334;21.936;2023-08-30T01:31:10;4.38;;;2.28;;
53835;SDS011;39737;43.334;21.936;2023-08-30T01:34:00;5.25;;;2.38;;
53835;SDS011;39737;43.334;21.936;2023-08-30T01:36:48;6.47;;;2.20;;
53835;SDS011;39737;43.334;21.936;2023-08-30T01:39:36;4.07;;;2.50;;
53835;SDS011;39737;43.334;21.936;2023-08-30T01:42:26;8.15;;;3.08;;
53835;SDS011;39737;43.334;21.936;2023-08-30T01:45:12;3.13;;;2.08;;
53835;SDS011;39737;43.334;21.936;2023-08-30T01:48:00;2.97;;;1.85;;
53835;SDS011;39737;43.334;21.936;2023-08-30T01:50:46;5.30;;;2.15;;
53835;SDS011;39737;43.334;21.936;2023-08-30T01:53:33;3.38;;;1.85;;
53835;SDS011;39737;43.334;21.936;2023-08-30T01:56:19;4.60;;;2.53;;
53835;SDS011;39737;43.334;21.936;2023-08-30T01:59:06;3.92;;;2.03;;
53835;SDS011;39737;43.334;21.936;2023-08-30T02:01:53;7.97;;;2.40;;
53835;SDS011;39737;43.334;21.936;2023-08-30T02:04:40;4.70;;;1.95;;
53835;SDS011;39737;43.334;21.936;2023-08-30T02:07:37;5.88;;;2.33;;
53835;SDS011;39737;43.334;21.936;2023-08-30T02:10:28;4.30;;;2.05;;
53835;SDS011;39737;43.334;21.936;2023-08-30T02:16:03;4.68;;;2.42;;
53835;SDS011;39737;43.334;21.936;2023-08-30T02:18:51;5.57;;;2.20;;
53835;SDS011;39737;43.334;21.936;2023-08-30T02:21:39;5.72;;;2.67;;
53835;SDS011;39737;43.334;21.936;2023-08-30T02:24:26;18.98;;;2.55;;
53835;SDS011;39737;43.334;21.936;2023-08-30T02:27:15;4.88;;;1.77;;
53835;SDS011;39737;43.334;21.936;2023-08-30T02:30:01;8.48;;;2.25;;
53835;SDS011;39737;43.334;21.936;2023-08-30T02:32:50;7.85;;;2.00;;
53835;SDS011;39737;43.334;21.936;2023-08-30T02:35:36;2.88;;;2.00;;
53835;SDS011;39737;43.334;21.936;2023-08-30T02:38:23;2.95;;;1.77;;
53835;SDS011;39737;43.334;21.936;2023-08-30T02:41:09;3.83;;;2.08;;
53835;SDS011;39737;43.334;21.936;2023-08-30T02:43:56;4.93;;;2.42;;
53835;SDS011;39737;43.334;21.936;2023-08-30T02:46:42;3.45;;;2.13;;
53835;SDS011;39737;43.334;21.936;2023-08-30T02:49:29;3.90;;;1.85;;
53835;SDS011;39737;43.334;21.936;2023-08-30T02:52:16;4.00;;;2.28;;
53835;SDS011;39737;43.334;21.936;2023-08-30T02:55:03;2.53;;;1.95;;
53835;SDS011;39737;43.334;21.936;2023-08-30T02:57:49;7.97;;;2.30;;
53835;SDS011;39737;43.334;21.936;2023-08-30T03:00:35;4.03;;;1.83;;
53835;SDS011;39737;43.334;21.936;2023-08-30T03:03:22;4.22;;;2.17;;
53835;SDS011;39737;43.334;21.936;2023-08-30T03:06:09;3.50;;;2.03;;
53835;SDS011;39737;43.334;21.936;2023-08-30T03:08:56;3.00;;;1.92;;
53835;SDS011;39737;43.334;21.936;2023-08-30T03:11:43;3.92;;;1.90;;
53835;SDS011;39737;43.334;21.936;2023-08-30T03:14:29;4.43;;;1.77;;
53835;SDS011;39737;43.334;21.936;2023-08-30T03:17:15;6.10;;;2.90;;
53835;SDS011;39737;43.334;21.936;2023-08-30T03:20:20;9.02;;;2.83;;
53835;SDS011;39737;43.334;21.936;2023-08-30T03:23:07;3.78;;;2.25;;
53835;SDS011;39737;43.334;21.936;2023-08-30T03:25:54;11.88;;;2.28;;
53835;SDS011;39737;43.334;21.936;2023-08-30T03:28:40;3.20;;;2.22;;
53835;SDS011;39737;43.334;21.936;2023-08-30T03:31:27;4.72;;;1.95;;
53835;SDS011;39737;43.334;21.936;2023-08-30T03:34:13;5.28;;;2.35;;
53835;SDS011;39737;43.334;21.936;2023-08-30T03:36:59;5.63;;;2.30;;
53835;SDS011;39737;43.334;21.936;2023-08-30T03:39:46;4.80;;;2.25;;
53835;SDS011;39737;43.334;21.936;2023-08-30T03:42:32;6.28;;;2.03;;
53835;SDS011;39737;43.334;21.936;2023-08-30T03:45:20;6.50;;;2.40;;
53835;SDS011;39737;43.334;21.936;2023-08-30T03:48:06;5.00;;;2.58;;
53835;SDS011;39737;43.334;21.936;2023-08-30T03:50:54;2.42;;;1.65;;
53835;SDS011;39737;43.334;21.936;2023-08-30T03:53:40;5.90;;;2.10;;
53835;SDS011;39737;43.334;21.936;2023-08-30T03:56:26;3.60;;;1.90;;
53835;SDS011;39737;43.334;21.936;2023-08-30T03:59:12;7.65;;;2.00;;
53835;SDS011;39737;43.334;21.936;2023-08-30T04:01:59;3.83;;;2.17;;
53835;SDS011;39737;43.334;21.936;2023-08-30T04:04:47;4.75;;;2.35;;
53835;SDS011;39737;43.334;21.936;2023-08-30T04:07:35;5.38;;;1.70;;
53835;SDS011;39737;43.334;21.936;2023-08-30T04:10:21;3.70;;;1.85;;
53835;SDS011;39737;43.334;21.936;2023-08-30T04:13:08;4.88;;;2.33;;
53835;SDS011;39737;43.334;21.936;2023-08-30T04:15:55;4.10;;;2.72;;
53835;SDS011;39737;43.334;21.936;2023-08-30T04:18:44;2.55;;;1.80;;
53835;SDS011;39737;43.334;21.936;2023-08-30T04:21:30;4.80;;;2.03;;
53835;SDS011;39737;43.334;21.936;2023-08-30T04:24:17;9.40;;;2.20;;
53835;SDS011;39737;43.334;21.936;2023-08-30T04:27:03;5.90;;;2.00;;
53835;SDS011;39737;43.334;21.936;2023-08-30T04:29:52;3.35;;;1.73;;
53835;SDS011;39737;43.334;21.936;2023-08-30T04:32:38;3.45;;;1.92;;
53835;SDS011;39737;43.334;21.936;2023-08-30T04:35:25;8.20;;;2.60;;
53835;SDS011;39737;43.334;21.936;2023-08-30T04:38:11;3.63;;;1.50;;
53835;SDS011;39737;43.334;21.936;2023-08-30T04:40:58;4.07;;;1.75;;
53835;SDS011;39737;43.334;21.936;2023-08-30T04:43:49;4.30;;;2.38;;
53835;SDS011;39737;43.334;21.936;2023-08-30T04:46:35;3.65;;;2.22;;
53835;SDS011;39737;43.334;21.936;2023-08-30T04:49:21;5.88;;;2.17;;
53835;SDS011;39737;43.334;21.936;2023-08-30T04:52:08;4.05;;;1.85;;
53835;SDS011;39737;43.334;21.936;2023-08-30T04:54:54;7.07;;;2.50;;
53835;SDS011;39737;43.334;21.936;2023-08-30T04:57:43;5.30;;;2.63;;
53835;SDS011;39737;43.334;21.936;2023-08-30T05:00:35;8.45;;;2.60;;
53835;SDS011;39737;43.334;21.936;2023-08-30T05:03:22;3.80;;;2.58;;
53835;SDS011;39737;43.334;21.936;2023-08-30T05:06:09;5.38;;;2.88;;
53835;SDS011;39737;43.334;21.936;2023-08-30T05:08:56;4.85;;;2.33;;
53835;SDS011;39737;43.334;21.936;2023-08-30T05:11:44;2.67;;;1.73;;
53835;SDS011;39737;43.334;21.936;2023-08-30T05:14:30;11.43;;;2.85;;
53835;SDS011;39737;43.334;21.936;2023-08-30T05:17:17;4.82;;;2.30;;
53835;SDS011;39737;43.334;21.936;2023-08-30T05:20:06;3.80;;;2.25;;
53835;SDS011;39737;43.334;21.936;2023-08-30T05:22:53;5.45;;;2.30;;
53835;SDS011;39737;43.334;21.936;2023-08-30T05:28:53;2.93;;;1.93;;
53835;SDS011;39737;43.334;21.936;2023-08-30T05:31:39;3.60;;;2.58;;
53835;SDS011;39737;43.334;21.936;2023-08-30T05:35:03;7.18;;;3.05;;
53835;SDS011;39737;43.334;21.936;2023-08-30T05:38:12;7.82;;;3.10;;
53835;SDS011;39737;43.334;21.936;2023-08-30T05:41:19;3.60;;;1.95;;
53835;SDS011;39737;43.334;21.936;2023-08-30T05:44:06;2.92;;;1.77;;
53835;SDS011;39737;43.334;21.936;2023-08-30T05:46:53;6.13;;;2.88;;
53835;SDS011;39737;43.334;21.936;2023-08-30T05:49:39;6.07;;;3.08;;
53835;SDS011;39737;43.334;21.936;2023-08-30T05:52:26;7.47;;;2.30;;
53835;SDS011;39737;43.334;21.936;2023-08-30T05:55:12;5.38;;;1.90;;
53835;SDS011;39737;43.334;21.936;2023-08-30T05:57:58;6.47;;;1.95;;
53835;SDS011;39737;43.334;21.936;2023-08-30T06:00:45;7.20;;;1.92;;
53835;SDS011;39737;43.334;21.936;2023-08-30T06:03:31;5.03;;;2.50;;
53835;SDS011;39737;43.334;21.936;2023-08-30T06:06:18;4.28;;;1.70;;
53835;SDS011;39737;43.334;21.936;2023-08-30T06:09:04;4.47;;;1.80;;
53835;SDS011;39737;43.334;21.936;2023-08-30T06:11:50;3.10;;;1.92;;
53835;SDS011;39737;43.334;21.936;2023-08-30T06:14:37;8.05;;;2.03;;
53835;SDS011;39737;43.334;21.936;2023-08-30T06:17:23;5.78;;;2.47;;
53835;SDS011;39737;43.334;21.936;2023-08-30T06:20:10;2.92;;;1.88;;
53835;SDS011;39737;43.334;21.936;2023-08-30T06:22:57;3.40;;;2.00;;
53835;SDS011;39737;43.334;21.936;2023-08-30T06:25:44;5.60;;;1.42;;
53835;SDS011;39737;43.334;21.936;2023-08-30T06:28:49;4.38;;;2.08;;
53835;SDS011;39737;43.334;21.936;2023-08-30T06:31:49;11.73;;;2.22;;
53835;SDS011;39737;43.334;21.936;2023-08-30T06:34:39;6.78;;;2.00;;
53835;SDS011;39737;43.334;21.936;2023-08-30T06:37:26;4.22;;;1.80;;
53835;SDS011;39737;43.334;21.936;2023-08-30T06:40:12;5.00;;;2.28;;
53835;SDS011;39737;43.334;21.936;2023-08-30T06:43:02;7.28;;;2.13;;
53835;SDS011;39737;43.334;21.936;2023-08-30T06:45:49;8.10;;;2.00;;
53835;SDS011;39737;43.334;21.936;2023-08-30T06:48:37;1.83;;;1.65;;
53835;SDS011;39737;43.334;21.936;2023-08-30T06:51:23;6.90;;;1.88;;
53835;SDS011;39737;43.334;21.936;2023-08-30T06:54:10;6.75;;;1.70;;
53835;SDS011;39737;43.334;21.936;2023-08-30T06:56:57;2.65;;;1.58;;
53835;SDS011;39737;43.334;21.936;2023-08-30T06:59:44;1.63;;;1.30;;
53835;SDS011;39737;43.334;21.936;2023-08-30T07:02:30;1.67;;;1.35;;
53835;SDS011;39737;43.334;21.936;2023-08-30T07:05:17;8.65;;;1.92;;
53835;SDS011;39737;43.334;21.936;2023-08-30T07:08:03;6.32;;;1.80;;
53835;SDS011;39737;43.334;21.936;2023-08-30T07:10:51;3.25;;;1.33;;
53835;SDS011;39737;43.334;21.936;2023-08-30T07:13:37;3.08;;;1.52;;
53835;SDS011;39737;43.334;21.936;2023-08-30T07:16:24;5.47;;;1.65;;
53835;SDS011;39737;43.334;21.936;2023-08-30T07:19:11;2.97;;;1.25;;
53835;SDS011;39737;43.334;21.936;2023-08-30T07:21:58;4.75;;;1.52;;
53835;SDS011;39737;43.334;21.936;2023-08-30T07:24:44;3.13;;;1.25;;
53835;SDS011;39737;43.334;21.936;2023-08-30T07:27:31;4.65;;;1.17;;
53835;SDS011;39737;43.334;21.936;2023-08-30T07:30:17;3.97;;;1.67;;
53835;SDS011;39737;43.334;21.936;2023-08-30T07:33:04;4.65;;;1.73;;
53835;SDS011;39737;43.334;21.936;2023-08-30T07:35:53;8.93;;;1.50;;
53835;SDS011;39737;43.334;21.936;2023-08-30T07:38:39;2.55;;;1.38;;
53835;SDS011;39737;43.334;21.936;2023-08-30T07:41:27;8.25;;;1.55;;
53835;SDS011;39737;43.334;21.936;2023-08-30T07:44:13;8.32;;;1.85;;
53835;SDS011;39737;43.334;21.936;2023-08-30T07:47:00;2.42;;;0.90;;
53835;SDS011;39737;43.334;21.936;2023-08-30T07:49:46;9.32;;;1.30;;
53835;SDS011;39737;43.334;21.936;2023-08-30T07:52:33;2.03;;;1.17;;
53835;SDS011;39737;43.334;21.936;2023-08-30T07:55:30;3.83;;;1.58;;
53835;SDS011;39737;43.334;21.936;2023-08-30T07:58:17;6.70;;;1.50;;
53835;SDS011;39737;43.334;21.936;2023-08-30T08:01:03;3.42;;;1.13;;
53835;SDS011;39737;43.334;21.936;2023-08-30T08:03:51;2.17;;;0.98;;
53835;SDS011;39737;43.334;21.936;2023-08-30T08:06:52;2.10;;;1.00;;
53835;SDS011;39737;43.334;21.936;2023-08-30T08:09:41;6.07;;;1.23;;
53835;SDS011;39737;43.334;21.936;2023-08-30T08:12:28;5.22;;;1.25;;
53835;SDS011;39737;43.334;21.936;2023-08-30T08:15:19;1.48;;;0.80;;
53835;SDS011;39737;43.334;21.936;2023-08-30T08:18:34;2.92;;;1.15;;
53835;SDS011;39737;43.334;21.936;2023-08-30T08:21:20;1.20;;;0.90;;
53835;SDS011;39737;43.334;21.936;2023-08-30T08:24:28;1.13;;;0.85;;
53835;SDS011;39737;43.334;21.936;2023-08-30T08:27:15;1.45;;;1.08;;
53835;SDS011;39737;43.334;21.936;2023-08-30T08:30:09;5.00;;;1.30;;
53835;SDS011;39737;43.334;21.936;2023-08-30T08:32:57;2.25;;;0.80;;
53835;SDS011;39737;43.334;21.936;2023-08-30T08:35:47;6.88;;;1.30;;
53835;SDS011;39737;43.334;21.936;2023-08-30T08:38:40;3.35;;;1.13;;
53835;SDS011;39737;43.334;21.936;2023-08-30T08:44:22;4.28;;;1.20;;
53835;SDS011;39737;43.334;21.936;2023-08-30T08:47:09;1.98;;;1.13;;
53835;SDS011;39737;43.334;21.936;2023-08-30T08:49:57;2.15;;;1.00;;
53835;SDS011;39737;43.334;21.936;2023-08-30T08:52:50;4.63;;;1.15;;
53835;SDS011;39737;43.334;21.936;2023-08-30T08:55:48;1.27;;;0.52;;
53835;SDS011;39737;43.334;21.936;2023-08-30T08:58:37;2.28;;;0.90;;
53835;SDS011;39737;43.334;21.936;2023-08-30T09:01:33;2.08;;;0.77;;
53835;SDS011;39737;43.334;21.936;2023-08-30T09:10:58;2.33;;;0.80;;
53835;SDS011;39737;43.334;21.936;2023-08-30T09:13:45;4.65;;;1.05;;
53835;SDS011;39737;43.334;21.936;2023-08-30T09:16:31;1.80;;;0.60;;
53835;SDS011;39737;43.334;21.936;2023-08-30T09:19:19;3.25;;;0.63;;
53835;SDS011;39737;43.334;21.936;2023-08-30T09:22:19;4.65;;;1.20;;
53835;SDS011;39737;43.334;21.936;2023-08-30T09:25:07;1.77;;;0.90;;
53835;SDS011;39737;43.334;21.936;2023-08-30T09:27:57;3.50;;;0.70;;
53835;SDS011;39737;43.334;21.936;2023-08-30T09:34:46;1.70;;;0.82;;
53835;SDS011;39737;43.334;21.936;2023-08-30T09:37:33;2.30;;;1.35;;
53835;SDS011;39737;43.334;21.936;2023-08-30T09:40:19;2.45;;;0.85;;
53835;SDS011;39737;43.334;21.936;2023-08-30T09:43:10;1.90;;;0.73;;
53835;SDS011;39737;43.334;21.936;2023-08-30T09:46:03;1.45;;;0.70;;
53835;SDS011;39737;43.334;21.936;2023-08-30T09:48:53;0.93;;;0.70;;
53835;SDS011;39737;43.334;21.936;2023-08-30T09:51:39;2.80;;;0.98;;
53835;SDS011;39737;43.334;21.936;2023-08-30T09:54:29;4.28;;;0.73;;
53835;SDS011;39737;43.334;21.936;2023-08-30T09:57:37;2.80;;;0.80;;
53835;SDS011;39737;43.334;21.936;2023-08-30T10:00:23;7.78;;;0.80;;
53835;SDS011;39737;43.334;21.936;2023-08-30T10:03:12;5.15;;;0.98;;
53835;SDS011;39737;43.334;21.936;2023-08-30T10:07:12;2.78;;;0.63;;
53835;SDS011;39737;43.334;21.936;2023-08-30T10:09:59;2.28;;;0.50;;
53835;SDS011;39737;43.334;21.936;2023-08-30T10:12:55;6.75;;;0.90;;
53835;SDS011;39737;43.334;21.936;2023-08-30T10:16:03;6.88;;;0.70;;
53835;SDS011;39737;43.334;21.936;2023-08-30T10:18:54;3.15;;;1.10;;
53835;SDS011;39737;43.334;21.936;2023-08-30T10:21:55;1.75;;;0.68;;
53835;SDS011;39737;43.334;21.936;2023-08-30T10:24:46;3.55;;;1.05;;
53835;SDS011;39737;43.334;21.936;2023-08-30T10:27:57;6.90;;;0.57;;
53835;SDS011;39737;43.334;21.936;2023-08-30T10:30:43;6.97;;;0.90;;
53835;SDS011;39737;43.334;21.936;2023-08-30T10:33:30;3.20;;;1.27;;
53835;SDS011;39737;43.334;21.936;2023-08-30T10:36:23;5.90;;;0.93;;
53835;SDS011;39737;43.334;21.936;2023-08-30T10:39:13;3.40;;;0.80;;
53835;SDS011;39737;43.334;21.936;2023-08-30T10:42:00;3.63;;;1.25;;
53835;SDS011;39737;43.334;21.936;2023-08-30T10:44:52;5.07;;;1.60;;
53835;SDS011;39737;43.334;21.936;2023-08-30T10:47:58;2.53;;;1.23;;
53835;SDS011;39737;43.334;21.936;2023-08-30T10:50:45;4.63;;;1.55;;
53835;SDS011;39737;43.334;21.936;2023-08-30T10:53:32;5.97;;;1.52;;
53835;SDS011;39737;43.334;21.936;2023-08-30T10:56:19;1.15;;;0.90;;
53835;SDS011;39737;43.334;21.936;2023-08-30T10:59:20;0.80;;;0.80;;
53835;SDS011;39737;43.334;21.936;2023-08-30T11:02:09;3.40;;;1.10;;
53835;SDS011;39737;43.334;21.936;2023-08-30T11:04:57;8.82;;;1.10;;
53835;SDS011;39737;43.334;21.936;2023-08-30T11:07:44;5.35;;;1.33;;
53835;SDS011;39737;43.334;21.936;2023-08-30T11:10:33;6.78;;;0.88;;
53835;SDS011;39737;43.334;21.936;2023-08-30T11:13:19;2.72;;;0.80;;
53835;SDS011;39737;43.334;21.936;2023-08-30T11:16:08;2.85;;;1.00;;
53835;SDS011;39737;43.334;21.936;2023-08-30T11:18:55;5.20;;;0.95;;
53835;SDS011;39737;43.334;21.936;2023-08-30T11:21:44;2.45;;;0.98;;
53835;SDS011;39737;43.334;21.936;2023-08-30T11:24:33;4.95;;;1.70;;
53835;SDS011;39737;43.334;21.936;2023-08-30T11:27:22;1.90;;;0.88;;
53835;SDS011;39737;43.334;21.936;2023-08-30T11:30:09;10.15;;;1.40;;
53835;SDS011;39737;43.334;21.936;2023-08-30T11:32:58;1.77;;;1.20;;
53835;SDS011;39737;43.334;21.936;2023-08-30T11:36:01;0.90;;;0.45;;
53835;SDS011;39737;43.334;21.936;2023-08-30T11:38:53;1.80;;;0.90;;
53835;SDS011;39737;43.334;21.936;2023-08-30T11:41:39;1.42;;;0.90;;
53835;SDS011;39737;43.334;21.936;2023-08-30T11:44:28;1.33;;;0.70;;
53835;SDS011;39737;43.334;21.936;2023-08-30T11:47:20;6.72;;;1.13;;
53835;SDS011;39737;43.334;21.936;2023-08-30T11:50:16;0.82;;;0.77;;
53835;SDS011;39737;43.334;21.936;2023-08-30T11:53:05;2.33;;;0.95;;
53835;SDS011;39737;43.334;21.936;2023-08-30T11:55:54;3.15;;;1.05;;
53835;SDS011;39737;43.334;21.936;2023-08-30T11:58:51;3.00;;;0.73;;
53835;SDS011;39737;43.334;21.936;2023-08-30T12:01:51;4.45;;;0.80;;
53835;SDS011;39737;43.334;21.936;2023-08-30T12:04:42;6.90;;;0.85;;
53835;SDS011;39737;43.334;21.936;2023-08-30T12:07:30;2.67;;;0.60;;
53835;SDS011;39737;43.334;21.936;2023-08-30T12:10:17;9.70;;;1.40;;
53835;SDS011;39737;43.334;21.936;2023-08-30T12:13:04;6.50;;;1.00;;
53835;SDS011;39737;43.334;21.936;2023-08-30T12:15:51;5.97;;;1.00;;
53835;SDS011;39737;43.334;21.936;2023-08-30T12:18:37;3.65;;;1.02;;
53835;SDS011;39737;43.334;21.936;2023-08-30T12:21:24;1.83;;;0.45;;
53835;SDS011;39737;43.334;21.936;2023-08-30T12:24:10;1.20;;;0.70;;
53835;SDS011;39737;43.334;21.936;2023-08-30T12:26:57;0.93;;;0.52;;
53835;SDS011;39737;43.334;21.936;2023-08-30T12:29:43;4.57;;;0.77;;
53835;SDS011;39737;43.334;21.936;2023-08-30T12:32:30;1.48;;;0.75;;
53835;SDS011;39737;43.334;21.936;2023-08-30T12:35:16;0.50;;;0.50;;
53835;SDS011;39737;43.334;21.936;2023-08-30T12:38:02;1.25;;;0.80;;
53835;SDS011;39737;43.334;21.936;2023-08-30T12:40:50;2.80;;;0.88;;
53835;SDS011;39737;43.334;21.936;2023-08-30T12:43:37;3.10;;;1.20;;
53835;SDS011;39737;43.334;21.936;2023-08-30T12:46:23;4.82;;;0.70;;
53835;SDS011;39737;43.334;21.936;2023-08-30T12:49:23;1.00;;;0.55;;
53835;SDS011;39737;43.334;21.936;2023-08-30T12:52:09;2.05;;;0.90;;
53835;SDS011;39737;43.334;21.936;2023-08-30T12:54:59;4.30;;;1.02;;
53835;SDS011;39737;43.334;21.936;2023-08-30T12:57:45;2.47;;;0.93;;
53835;SDS011;39737;43.334;21.936;2023-08-30T13:00:32;4.03;;;0.63;;
53835;SDS011;39737;43.334;21.936;2023-08-30T13:03:19;2.38;;;0.60;;
53835;SDS011;39737;43.334;21.936;2023-08-30T13:06:05;2.67;;;1.17;;
53835;SDS011;39737;43.334;21.936;2023-08-30T13:08:52;4.10;;;0.93;;
53835;SDS011;39737;43.334;21.936;2023-08-30T13:11:38;3.65;;;0.90;;
53835;SDS011;39737;43.334;21.936;2023-08-30T13:14:24;5.47;;;0.68;;
53835;SDS011;39737;43.334;21.936;2023-08-30T13:17:11;1.83;;;0.75;;
53835;SDS011;39737;43.334;21.936;2023-08-30T13:19:57;2.45;;;0.80;;
53835;SDS011;39737;43.334;21.936;2023-08-30T13:22:43;1.35;;;0.63;;
53835;SDS011;39737;43.334;21.936;2023-08-30T13:25:30;1.38;;;0.65;;
53835;SDS011;39737;43.334;21.936;2023-08-30T13:28:16;4.05;;;1.50;;
53835;SDS011;39737;43.334;21.936;2023-08-30T13:31:02;3.45;;;1.00;;
53835;SDS011;39737;43.334;21.936;2023-08-30T13:33:49;1.13;;;0.63;;
53835;SDS011;39737;43.334;21.936;2023-08-30T13:36:36;5.78;;;0.80;;
53835;SDS011;39737;43.334;21.936;2023-08-30T13:39:22;1.17;;;0.65;;
53835;SDS011;39737;43.334;21.936;2023-08-30T13:42:11;1.70;;;1.13;;
53835;SDS011;39737;43.334;21.936;2023-08-30T13:44:58;4.18;;;0.95;;
53835;SDS011;39737;43.334;21.936;2023-08-30T13:47:47;5.88;;;1.05;;
53835;SDS011;39737;43.334;21.936;2023-08-30T13:50:41;1.13;;;0.60;;
53835;SDS011;39737;43.334;21.936;2023-08-30T13:53:30;0.75;;;0.45;;
53835;SDS011;39737;43.334;21.936;2023-08-30T13:56:17;2.10;;;0.60;;
53835;SDS011;39737;43.334;21.936;2023-08-30T13:59:06;2.55;;;0.80;;
53835;SDS011;39737;43.334;21.936;2023-08-30T14:01:52;2.65;;;0.70;;
53835;SDS011;39737;43.334;21.936;2023-08-30T14:04:41;3.60;;;0.90;;
53835;SDS011;39737;43.334;21.936;2023-08-30T14:07:37;1.45;;;0.70;;
53835;SDS011;39737;43.334;21.936;2023-08-30T14:10:23;0.73;;;0.73;;
53835;SDS011;39737;43.334;21.936;2023-08-30T14:13:11;0.60;;;0.60;;
53835;SDS011;39737;43.334;21.936;2023-08-30T14:16:00;2.35;;;0.90;;
53835;SDS011;39737;43.334;21.936;2023-08-30T14:18:46;4.72;;;1.10;;
53835;SDS011;39737;43.334;21.936;2023-08-30T14:21:32;3.05;;;1.20;;
53835;SDS011;39737;43.334;21.936;2023-08-30T14:27:56;7.50;;;1.15;;
53835;SDS011;39737;43.334;21.936;2023-08-30T14:30:42;1.33;;;1.13;;
53835;SDS011;39737;43.334;21.936;2023-08-30T14:33:29;3.38;;;0.82;;
53835;SDS011;39737;43.334;21.936;2023-08-30T14:36:17;2.42;;;0.80;;
53835;SDS011;39737;43.334;21.936;2023-08-30T14:39:03;1.95;;;0.68;;
53835;SDS011;39737;43.334;21.936;2023-08-30T14:41:51;1.80;;;1.10;;
53835;SDS011;39737;43.334;21.936;2023-08-30T14:44:38;5.18;;;1.05;;
53835;SDS011;39737;43.334;21.936;2023-08-30T14:47:24;4.53;;;1.08;;
53835;SDS011;39737;43.334;21.936;2023-08-30T14:50:10;1.90;;;0.38;;
53835;SDS011;39737;43.334;21.936;2023-08-30T14:52:57;1.80;;;1.10;;
53835;SDS011;39737;43.334;21.936;2023-08-30T14:55:46;2.40;;;0.82;;
53835;SDS011;39737;43.334;21.936;2023-08-30T14:58:33;1.00;;;0.73;;
53835;SDS011;39737;43.334;21.936;2023-08-30T15:01:21;0.63;;;0.55;;
53835;SDS011;39737;43.334;21.936;2023-08-30T15:04:07;1.45;;;0.73;;
53835;SDS011;39737;43.334;21.936;2023-08-30T15:06:54;2.60;;;0.70;;
53835;SDS011;39737;43.334;21.936;2023-08-30T15:09:40;6.05;;;0.55;;
53835;SDS011;39737;43.334;21.936;2023-08-30T15:12:28;5.88;;;1.00;;
53835;SDS011;39737;43.334;21.936;2023-08-30T15:15:14;3.92;;;1.00;;
53835;SDS011;39737;43.334;21.936;2023-08-30T15:18:01;1.95;;;1.23;;
53835;SDS011;39737;43.334;21.936;2023-08-30T15:20:47;0.75;;;0.47;;
53835;SDS011;39737;43.334;21.936;2023-08-30T15:23:39;2.72;;;0.95;;
53835;SDS011;39737;43.334;21.936;2023-08-30T15:26:28;4.13;;;1.15;;
53835;SDS011;39737;43.334;21.936;2023-08-30T15:29:15;2.50;;;0.75;;
53835;SDS011;39737;43.334;21.936;2023-08-30T15:32:01;6.97;;;0.93;;
53835;SDS011;39737;43.334;21.936;2023-08-30T15:34:48;3.42;;;1.15;;
53835;SDS011;39737;43.334;21.936;2023-08-30T15:37:35;0.90;;;0.60;;
53835;SDS011;39737;43.334;21.936;2023-08-30T15:40:22;1.90;;;0.70;;
53835;SDS011;39737;43.334;21.936;2023-08-30T15:43:09;0.65;;;0.47;;
53835;SDS011;39737;43.334;21.936;2023-08-30T15:45:55;1.40;;;0.80;;
53835;SDS011;39737;43.334;21.936;2023-08-30T15:48:44;2.70;;;1.00;;
53835;SDS011;39737;43.334;21.936;2023-08-30T15:51:35;1.45;;;0.85;;
53835;SDS011;39737;43.334;21.936;2023-08-30T15:54:21;1.77;;;0.70;;
53835;SDS011;39737;43.334;21.936;2023-08-30T15:57:07;2.35;;;1.00;;
53835;SDS011;39737;43.334;21.936;2023-08-30T15:59:54;1.42;;;0.50;;
53835;SDS011;39737;43.334;21.936;2023-08-30T16:02:40;2.60;;;0.70;;
53835;SDS011;39737;43.334;21.936;2023-08-30T16:05:27;2.42;;;0.88;;
53835;SDS011;39737;43.334;21.936;2023-08-30T16:08:13;1.13;;;0.75;;
53835;SDS011;39737;43.334;21.936;2023-08-30T16:11:00;6.70;;;0.60;;
53835;SDS011;39737;43.334;21.936;2023-08-30T16:13:46;1.33;;;0.68;;
53835;SDS011;39737;43.334;21.936;2023-08-30T16:16:33;6.00;;;0.88;;
53835;SDS011;39737;43.334;21.936;2023-08-30T16:19:19;1.48;;;0.80;;
53835;SDS011;39737;43.334;21.936;2023-08-30T16:22:06;2.58;;;0.77;;
53835;SDS011;39737;43.334;21.936;2023-08-30T16:24:52;1.63;;;0.75;;
53835;SDS011;39737;43.334;21.936;2023-08-30T16:27:38;3.78;;;1.50;;
53835;SDS011;39737;43.334;21.936;2023-08-30T16:30:25;1.60;;;1.00;;
53835;SDS011;39737;43.334;21.936;2023-08-30T16:33:15;4.83;;;1.83;;
53835;SDS011;39737;43.334;21.936;2023-08-30T16:36:04;4.40;;;1.48;;
53835;SDS011;39737;43.334;21.936;2023-08-30T16:38:50;1.60;;;1.05;;
53835;SDS011;39737;43.334;21.936;2023-08-30T16:41:36;4.60;;;1.27;;
53835;SDS011;39737;43.334;21.936;2023-08-30T16:44:23;4.13;;;1.00;;
53835;SDS011;39737;43.334;21.936;2023-08-30T16:47:09;3.45;;;0.93;;
53835;SDS011;39737;43.334;21.936;2023-08-30T16:49:55;5.63;;;1.50;;
53835;SDS011;39737;43.334;21.936;2023-08-30T16:52:42;3.08;;;1.48;;
53835;SDS011;39737;43.334;21.936;2023-08-30T16:55:28;2.22;;;1.48;;
53835;SDS011;39737;43.334;21.936;2023-08-30T16:58:15;1.45;;;0.68;;
53835;SDS011;39737;43.334;21.936;2023-08-30T17:01:01;4.72;;;1.95;;
53835;SDS011;39737;43.334;21.936;2023-08-30T17:03:52;3.47;;;1.15;;
53835;SDS011;39737;43.334;21.936;2023-08-30T17:06:39;1.83;;;0.77;;